sensor_id;sensor_type;location;lat;lon;timestamp;pressure;altitude;pressure_sealevel;temperature;humidity
68366;BME280;55283;51.466;5.478;2022-11-25T00:02:22;100749.47;;;20.73;33.92
68366;BME280;55283;51.466;5.478;2022-11-25T00:04:47;100749.47;;;20.73;33.63
68366;BME280;55283;51.466;5.478;2022-11-25T00:07:13;100759.44;;;20.74;33.76
68366;BME280;55283;51.466;5.478;2022-11-25T00:09:38;100758.22;;;20.75;33.95
68366;BME280;55283;51.466;5.478;2022-11-25T00:12:03;100746.31;;;20.71;33.88
68366;BME280;55283;51.466;5.478;2022-11-25T00:14:29;100745.09;;;20.72;33.97
68366;BME280;55283;51.466;5.478;2022-11-25T00:16:54;100758.66;;;20.73;33.76
68366;BME280;55283;51.466;5.478;2022-11-25T00:19:20;100747.91;;;20.72;33.75
68366;BME280;55283;51.466;5.478;2022-11-25T00:21:45;100740.72;;;20.71;33.71
68366;BME280;55283;51.466;5.478;2022-11-25T00:24:13;100747.44;;;20.73;33.80
68366;BME280;55283;51.466;5.478;2022-11-25T00:26:39;100739.03;;;20.73;33.94
68366;BME280;55283;51.466;5.478;2022-11-25T00:29:05;100733.44;;;20.73;33.81
68366;BME280;55283;51.466;5.478;2022-11-25T00:31:33;100741.41;;;20.75;33.66
68366;BME280;55283;51.466;5.478;2022-11-25T00:34:00;100731.53;;;20.70;33.62
68366;BME280;55283;51.466;5.478;2022-11-25T00:36:28;100727.59;;;20.68;33.95
68366;BME280;55283;51.466;5.478;2022-11-25T00:38:59;100730.41;;;20.68;33.71
68366;BME280;55283;51.466;5.478;2022-11-25T00:41:26;100721.69;;;20.66;33.87
68366;BME280;55283;51.466;5.478;2022-11-25T00:44:12;100718.53;;;20.64;33.87
68366;BME280;55283;51.466;5.478;2022-11-25T00:46:56;100722.91;;;20.65;33.68
68366;BME280;55283;51.466;5.478;2022-11-25T00:49:22;100720.56;;;20.63;33.95
68366;BME280;55283;51.466;5.478;2022-11-25T00:51:47;100723.78;;;20.62;33.88
68366;BME280;55283;51.466;5.478;2022-11-25T00:54:13;100717.75;;;20.63;33.90
68366;BME280;55283;51.466;5.478;2022-11-25T00:56:38;100726.47;;;20.65;33.88
68366;BME280;55283;51.466;5.478;2022-11-25T00:59:07;100718.97;;;20.62;34.13
68366;BME280;55283;51.466;5.478;2022-11-25T01:01:33;100735.00;;;20.62;33.94
68366;BME280;55283;51.466;5.478;2022-11-25T01:03:58;100734.56;;;20.63;33.95
68366;BME280;55283;51.466;5.478;2022-11-25T01:06:26;100735.78;;;20.62;33.86
68366;BME280;55283;51.466;5.478;2022-11-25T01:08:52;100734.22;;;20.61;34.05
68366;BME280;55283;51.466;5.478;2022-11-25T01:11:20;100733.44;;;20.61;33.74
68366;BME280;55283;51.466;5.478;2022-11-25T01:13:46;100739.69;;;20.65;33.90
68366;BME280;55283;51.466;5.478;2022-11-25T01:16:15;100736.91;;;20.65;33.71
68366;BME280;55283;51.466;5.478;2022-11-25T01:18:41;100729.75;;;20.64;33.84
68366;BME280;55283;51.466;5.478;2022-11-25T01:21:21;100736.91;;;20.65;33.88
68366;BME280;55283;51.466;5.478;2022-11-25T01:23:48;100738.50;;;20.66;33.85
68366;BME280;55283;51.466;5.478;2022-11-25T01:26:17;100736.13;;;20.64;33.85
68366;BME280;55283;51.466;5.478;2022-11-25T01:28:44;100742.97;;;20.63;33.94
68366;BME280;55283;51.466;5.478;2022-11-25T01:31:16;100742.16;;;20.63;33.87
68366;BME280;55283;51.466;5.478;2022-11-25T01:33:43;100739.34;;;20.63;33.87
68366;BME280;55283;51.466;5.478;2022-11-25T01:36:15;100749.00;;;20.62;33.91
68366;BME280;55283;51.466;5.478;2022-11-25T01:38:42;100743.75;;;20.64;33.79
68366;BME280;55283;51.466;5.478;2022-11-25T01:41:09;100753.34;;;20.63;33.72
68366;BME280;55283;51.466;5.478;2022-11-25T01:43:35;100758.63;;;20.61;33.85
68366;BME280;55283;51.466;5.478;2022-11-25T01:48:56;100758.63;;;20.61;33.92
68366;BME280;55283;51.466;5.478;2022-11-25T01:51:39;100761.88;;;20.59;33.92
68366;BME280;55283;51.466;5.478;2022-11-25T01:54:10;100775.88;;;20.59;33.82
68366;BME280;55283;51.466;5.478;2022-11-25T01:56:44;100778.25;;;20.61;33.83
68366;BME280;55283;51.466;5.478;2022-11-25T01:59:12;100787.84;;;20.60;33.74
68366;BME280;55283;51.466;5.478;2022-11-25T02:01:37;100784.28;;;20.59;33.81
68366;BME280;55283;51.466;5.478;2022-11-25T02:04:04;100784.28;;;20.59;33.87
68366;BME280;55283;51.466;5.478;2022-11-25T02:06:35;100791.91;;;20.58;33.83
68366;BME280;55283;51.466;5.478;2022-11-25T02:09:05;100790.75;;;20.56;34.02
68366;BME280;55283;51.466;5.478;2022-11-25T02:11:32;100796.25;;;20.60;33.85
68366;BME280;55283;51.466;5.478;2022-11-25T02:14:00;100807.47;;;20.60;34.00
68366;BME280;55283;51.466;5.478;2022-11-25T02:16:26;100803.09;;;20.58;33.69
68366;BME280;55283;51.466;5.478;2022-11-25T02:18:52;100805.34;;;20.64;33.98
68366;BME280;55283;51.466;5.478;2022-11-25T02:21:24;100796.97;;;20.64;33.85
68366;BME280;55283;51.466;5.478;2022-11-25T02:24:17;100801.31;;;20.65;33.84
68366;BME280;55283;51.466;5.478;2022-11-25T02:26:45;100804.56;;;20.63;33.87
68366;BME280;55283;51.466;5.478;2022-11-25T02:29:11;100814.19;;;20.62;33.86
68366;BME280;55283;51.466;5.478;2022-11-25T02:31:38;100815.78;;;20.63;33.80
68366;BME280;55283;51.466;5.478;2022-11-25T02:34:06;100808.59;;;20.62;33.79
68366;BME280;55283;51.466;5.478;2022-11-25T02:36:33;100828.66;;;20.61;33.82
68366;BME280;55283;51.466;5.478;2022-11-25T02:38:59;100816.22;;;20.62;33.89
68366;BME280;55283;51.466;5.478;2022-11-25T02:41:49;100819.00;;;20.62;33.79
68366;BME280;55283;51.466;5.478;2022-11-25T02:44:15;100829.88;;;20.60;34.03
68366;BME280;55283;51.466;5.478;2022-11-25T02:46:41;100828.75;;;20.57;33.91
68366;BME280;55283;51.466;5.478;2022-11-25T02:49:06;100843.97;;;20.56;34.13
68366;BME280;55283;51.466;5.478;2022-11-25T02:51:32;100839.16;;;20.56;33.85
68366;BME280;55283;51.466;5.478;2022-11-25T02:53:59;100836.72;;;20.58;33.92
68366;BME280;55283;51.466;5.478;2022-11-25T02:56:29;100835.91;;;20.58;34.00
68366;BME280;55283;51.466;5.478;2022-11-25T02:58:55;100819.13;;;20.58;34.08
68366;BME280;55283;51.466;5.478;2022-11-25T03:01:21;100803.09;;;20.58;34.02
68366;BME280;55283;51.466;5.478;2022-11-25T03:03:46;100789.97;;;20.55;34.04
68366;BME280;55283;51.466;5.478;2022-11-25T03:06:12;100795.94;;;20.57;33.97
68366;BME280;55283;51.466;5.478;2022-11-25T03:08:37;100787.97;;;20.56;34.14
68366;BME280;55283;51.466;5.478;2022-11-25T03:11:03;100757.16;;;20.56;34.10
68366;BME280;55283;51.466;5.478;2022-11-25T03:13:29;100750.00;;;20.55;34.00
68366;BME280;55283;51.466;5.478;2022-11-25T03:15:54;100747.97;;;20.55;34.10
68366;BME280;55283;51.466;5.478;2022-11-25T03:18:20;100753.94;;;20.57;34.09
68366;BME280;55283;51.466;5.478;2022-11-25T03:20:45;100753.94;;;20.57;34.03
68366;BME280;55283;51.466;5.478;2022-11-25T03:23:11;100759.19;;;20.55;33.96
68366;BME280;55283;51.466;5.478;2022-11-25T03:25:36;100766.03;;;20.54;34.08
68366;BME280;55283;51.466;5.478;2022-11-25T03:28:02;100756.81;;;20.54;34.02
68366;BME280;55283;51.466;5.478;2022-11-25T03:30:29;100765.56;;;20.56;34.00
68366;BME280;55283;51.466;5.478;2022-11-25T03:32:54;100764.66;;;20.59;33.90
68366;BME280;55283;51.466;5.478;2022-11-25T03:35:20;100776.34;;;20.57;33.89
68366;BME280;55283;51.466;5.478;2022-11-25T03:37:46;100799.94;;;20.56;34.09
68366;BME280;55283;51.466;5.478;2022-11-25T03:40:13;100816.31;;;20.58;34.06
68366;BME280;55283;51.466;5.478;2022-11-25T03:42:40;100834.25;;;20.61;33.96
68366;BME280;55283;51.466;5.478;2022-11-25T03:45:06;100829.88;;;20.60;34.06
68366;BME280;55283;51.466;5.478;2022-11-25T03:47:32;100828.66;;;20.61;33.99
68366;BME280;55283;51.466;5.478;2022-11-25T03:49:58;100828.66;;;20.61;33.89
68366;BME280;55283;51.466;5.478;2022-11-25T03:52:23;100825.50;;;20.58;34.09
68366;BME280;55283;51.466;5.478;2022-11-25T03:54:49;100819.91;;;20.58;33.94
68366;BME280;55283;51.466;5.478;2022-11-25T03:57:14;100837.94;;;20.57;34.10
68366;BME280;55283;51.466;5.478;2022-11-25T03:59:40;100849.56;;;20.56;34.11
68366;BME280;55283;51.466;5.478;2022-11-25T04:02:05;100852.84;;;20.54;34.23
68366;BME280;55283;51.466;5.478;2022-11-25T04:04:30;100851.59;;;20.55;34.08
68366;BME280;55283;51.466;5.478;2022-11-25T04:06:56;100861.22;;;20.54;34.03
68366;BME280;55283;51.466;5.478;2022-11-25T04:09:21;100840.59;;;20.48;33.99
68366;BME280;55283;51.466;5.478;2022-11-25T04:11:47;100850.34;;;20.56;34.01
68366;BME280;55283;51.466;5.478;2022-11-25T04:14:31;100856.31;;;20.58;33.93
68366;BME280;55283;51.466;5.478;2022-11-25T04:16:56;100856.31;;;20.58;34.07
68366;BME280;55283;51.466;5.478;2022-11-25T04:19:25;100867.50;;;20.58;33.96
68366;BME280;55283;51.466;5.478;2022-11-25T04:21:50;100863.16;;;20.57;33.99
68366;BME280;55283;51.466;5.478;2022-11-25T04:24:15;100871.56;;;20.57;34.00
68366;BME280;55283;51.466;5.478;2022-11-25T04:26:41;100879.94;;;20.57;33.90
68366;BME280;55283;51.466;5.478;2022-11-25T04:29:06;100878.34;;;20.56;34.02
68366;BME280;55283;51.466;5.478;2022-11-25T04:31:32;100875.22;;;20.54;34.17
68366;BME280;55283;51.466;5.478;2022-11-25T04:34:00;100888.34;;;20.57;34.03
68366;BME280;55283;51.466;5.478;2022-11-25T04:36:28;100889.56;;;20.56;34.08
68366;BME280;55283;51.466;5.478;2022-11-25T04:38:54;100886.44;;;20.54;34.08
68366;BME280;55283;51.466;5.478;2022-11-25T04:41:19;100898.78;;;20.57;34.21
68366;BME280;55283;51.466;5.478;2022-11-25T04:43:44;100900.75;;;20.56;34.14
68366;BME280;55283;51.466;5.478;2022-11-25T04:46:15;100908.84;;;20.54;33.91
68366;BME280;55283;51.466;5.478;2022-11-25T04:48:41;100910.75;;;20.57;33.95
68366;BME280;55283;51.466;5.478;2022-11-25T04:51:07;100916.34;;;20.57;33.94
68366;BME280;55283;51.466;5.478;2022-11-25T04:53:32;100915.56;;;20.57;34.13
68366;BME280;55283;51.466;5.478;2022-11-25T04:55:58;100916.78;;;20.56;34.14
68366;BME280;55283;51.466;5.478;2022-11-25T04:58:23;100913.19;;;20.55;34.13
68366;BME280;55283;51.466;5.478;2022-11-25T05:01:07;100915.22;;;20.55;34.09
68366;BME280;55283;51.466;5.478;2022-11-25T05:03:32;100918.03;;;20.55;34.09
68366;BME280;55283;51.466;5.478;2022-11-25T05:05:57;100917.25;;;20.54;34.22
68366;BME280;55283;51.466;5.478;2022-11-25T05:08:23;100928.44;;;20.54;34.13
68366;BME280;55283;51.466;5.478;2022-11-25T05:10:50;100928.09;;;20.52;34.15
68366;BME280;55283;51.466;5.478;2022-11-25T05:13:16;100938.06;;;20.53;34.10
68366;BME280;55283;51.466;5.478;2022-11-25T05:15:41;100933.22;;;20.54;33.92
68366;BME280;55283;51.466;5.478;2022-11-25T05:18:08;100943.66;;;20.53;34.21
68366;BME280;55283;51.466;5.478;2022-11-25T05:20:33;100943.66;;;20.53;34.05
68366;BME280;55283;51.466;5.478;2022-11-25T05:22:59;100931.66;;;20.53;34.04
68366;BME280;55283;51.466;5.478;2022-11-25T05:25:24;100932.13;;;20.51;34.16
68366;BME280;55283;51.466;5.478;2022-11-25T05:27:53;100933.69;;;20.52;34.13
68366;BME280;55283;51.466;5.478;2022-11-25T05:30:19;100939.28;;;20.52;34.05
68366;BME280;55283;51.466;5.478;2022-11-25T05:32:46;100936.50;;;20.52;33.97
68366;BME280;55283;51.466;5.478;2022-11-25T05:35:14;100940.53;;;20.51;34.29
68366;BME280;55283;51.466;5.478;2022-11-25T05:37:40;100942.50;;;20.51;34.23
68366;BME280;55283;51.466;5.478;2022-11-25T05:40:05;100936.91;;;20.51;34.00
68366;BME280;55283;51.466;5.478;2022-11-25T05:42:33;100941.72;;;20.50;34.03
68366;BME280;55283;51.466;5.478;2022-11-25T05:44:59;100950.13;;;20.50;34.18
68366;BME280;55283;51.466;5.478;2022-11-25T05:47:26;100948.94;;;20.51;34.00
68366;BME280;55283;51.466;5.478;2022-11-25T05:49:51;100940.16;;;20.49;33.93
68366;BME280;55283;51.466;5.478;2022-11-25T05:52:18;100947.00;;;20.48;34.26
68366;BME280;55283;51.466;5.478;2022-11-25T05:54:46;100962.47;;;20.53;34.06
68366;BME280;55283;51.466;5.478;2022-11-25T05:57:12;100960.13;;;20.51;33.85
68366;BME280;55283;51.466;5.478;2022-11-25T05:59:37;100952.50;;;20.52;34.04
68366;BME280;55283;51.466;5.478;2022-11-25T06:02:02;100968.53;;;20.51;33.91
68366;BME280;55283;51.466;5.478;2022-11-25T06:04:28;100964.13;;;20.50;34.07
68366;BME280;55283;51.466;5.478;2022-11-25T06:06:56;100966.59;;;20.48;34.20
68366;BME280;55283;51.466;5.478;2022-11-25T06:09:24;100971.75;;;20.50;33.96
68366;BME280;55283;51.466;5.478;2022-11-25T06:11:49;100969.41;;;20.48;34.08
68366;BME280;55283;51.466;5.478;2022-11-25T06:14:14;100967.03;;;20.47;34.20
68366;BME280;55283;51.466;5.478;2022-11-25T06:16:42;100968.34;;;20.42;34.19
68366;BME280;55283;51.466;5.478;2022-11-25T06:19:07;100967.50;;;20.45;34.27
68366;BME280;55283;51.466;5.478;2022-11-25T06:21:32;100969.47;;;20.45;34.28
68366;BME280;55283;51.466;5.478;2022-11-25T06:23:58;100978.31;;;20.43;34.54
68366;BME280;55283;51.466;5.478;2022-11-25T06:26:23;100981.66;;;20.38;34.84
68366;BME280;55283;51.466;5.478;2022-11-25T06:28:52;100988.50;;;20.33;34.76
68366;BME280;55283;51.466;5.478;2022-11-25T06:31:20;100987.41;;;20.31;35.03
68366;BME280;55283;51.466;5.478;2022-11-25T06:33:47;100988.28;;;20.28;35.41
68366;BME280;55283;51.466;5.478;2022-11-25T06:36:13;100988.97;;;20.32;35.25
68366;BME280;55283;51.466;5.478;2022-11-25T06:38:52;100993.34;;;20.33;35.13
68366;BME280;55283;51.466;5.478;2022-11-25T06:41:19;101007.22;;;20.40;35.13
68366;BME280;55283;51.466;5.478;2022-11-25T06:43:45;101011.56;;;20.41;35.05
68366;BME280;55283;51.466;5.478;2022-11-25T06:46:13;101014.22;;;20.48;35.09
68366;BME280;55283;51.466;5.478;2022-11-25T06:48:39;101012.63;;;20.47;35.37
68366;BME280;55283;51.466;5.478;2022-11-25T06:51:09;101022.94;;;20.50;35.37
68366;BME280;55283;51.466;5.478;2022-11-25T06:53:36;101010.88;;;20.53;35.66
68366;BME280;55283;51.466;5.478;2022-11-25T06:56:05;101019.97;;;20.57;35.92
68366;BME280;55283;51.466;5.478;2022-11-25T06:58:31;101013.84;;;20.63;36.29
68366;BME280;55283;51.466;5.478;2022-11-25T07:01:05;101020.94;;;20.51;35.69
68366;BME280;55283;51.466;5.478;2022-11-25T07:03:31;101024.00;;;20.40;35.35
68366;BME280;55283;51.466;5.478;2022-11-25T07:05:58;101019.13;;;20.24;35.65
68366;BME280;55283;51.466;5.478;2022-11-25T07:08:25;101019.91;;;20.25;35.28
68366;BME280;55283;51.466;5.478;2022-11-25T07:10:51;101025.88;;;20.27;35.75
68366;BME280;55283;51.466;5.478;2022-11-25T07:13:17;101037.94;;;20.24;35.92
68366;BME280;55283;51.466;5.478;2022-11-25T07:15:42;101039.97;;;20.23;35.88
68366;BME280;55283;51.466;5.478;2022-11-25T07:18:08;101041.97;;;20.23;36.05
68366;BME280;55283;51.466;5.478;2022-11-25T07:20:33;101045.09;;;20.25;36.17
68366;BME280;55283;51.466;5.478;2022-11-25T07:22:58;101049.00;;;20.31;35.88
68366;BME280;55283;51.466;5.478;2022-11-25T07:25:33;101059.47;;;20.27;35.79
68366;BME280;55283;51.466;5.478;2022-11-25T07:28:04;101069.47;;;20.28;36.06
68366;BME280;55283;51.466;5.478;2022-11-25T07:30:30;101069.47;;;20.28;35.99
68366;BME280;55283;51.466;5.478;2022-11-25T07:32:55;101074.59;;;20.29;35.93
68366;BME280;55283;51.466;5.478;2022-11-25T07:35:20;101076.63;;;20.29;36.07
68366;BME280;55283;51.466;5.478;2022-11-25T07:37:48;101082.59;;;20.31;36.23
68366;BME280;55283;51.466;5.478;2022-11-25T07:40:14;101084.75;;;20.23;36.20
68366;BME280;55283;51.466;5.478;2022-11-25T07:42:39;101089.91;;;20.25;35.92
68366;BME280;55283;51.466;5.478;2022-11-25T07:45:05;101097.09;;;20.26;35.93
68366;BME280;55283;51.466;5.478;2022-11-25T07:47:33;101114.25;;;20.28;36.10
68366;BME280;55283;51.466;5.478;2022-11-25T07:49:58;101111.59;;;20.21;36.11
68366;BME280;55283;51.466;5.478;2022-11-25T07:52:24;101118.75;;;20.22;36.01
68366;BME280;55283;51.466;5.478;2022-11-25T07:54:49;101129.16;;;20.21;35.96
68366;BME280;55283;51.466;5.478;2022-11-25T07:57:14;101126.81;;;20.20;35.98
68366;BME280;55283;51.466;5.478;2022-11-25T07:59:40;101134.78;;;20.21;36.09
68366;BME280;55283;51.466;5.478;2022-11-25T08:02:08;101134.84;;;20.18;36.02
68366;BME280;55283;51.466;5.478;2022-11-25T08:04:33;101139.66;;;20.17;35.85
68366;BME280;55283;51.466;5.478;2022-11-25T08:06:59;101144.47;;;20.17;35.97
68366;BME280;55283;51.466;5.478;2022-11-25T08:09:24;101140.44;;;20.18;35.74
68366;BME280;55283;51.466;5.478;2022-11-25T08:12:06;101150.69;;;20.24;35.58
68366;BME280;55283;51.466;5.478;2022-11-25T08:14:33;101151.16;;;20.23;35.69
68366;BME280;55283;51.466;5.478;2022-11-25T08:17:04;101152.28;;;20.25;35.78
68366;BME280;55283;51.466;5.478;2022-11-25T08:19:33;101153.84;;;20.26;35.36
68366;BME280;55283;51.466;5.478;2022-11-25T08:22:03;101162.09;;;20.33;35.56
68366;BME280;55283;51.466;5.478;2022-11-25T08:24:30;101163.63;;;20.38;35.37
68366;BME280;55283;51.466;5.478;2022-11-25T08:27:01;101182.50;;;20.34;35.56
68366;BME280;55283;51.466;5.478;2022-11-25T08:29:29;101168.50;;;20.34;35.57
68366;BME280;55283;51.466;5.478;2022-11-25T08:31:54;101180.81;;;20.40;35.53
68366;BME280;55283;51.466;5.478;2022-11-25T08:34:22;101183.09;;;20.45;35.43
68366;BME280;55283;51.466;5.478;2022-11-25T08:36:48;101179.75;;;20.50;35.29
68366;BME280;55283;51.466;5.478;2022-11-25T08:39:21;101182.22;;;20.48;35.46
68366;BME280;55283;51.466;5.478;2022-11-25T08:41:47;101175.31;;;20.53;35.22
68366;BME280;55283;51.466;5.478;2022-11-25T08:44:12;101182.06;;;20.55;35.29
68366;BME280;55283;51.466;5.478;2022-11-25T08:46:38;101177.16;;;20.60;35.31
68366;BME280;55283;51.466;5.478;2022-11-25T08:49:06;101179.53;;;20.61;35.27
68366;BME280;55283;51.466;5.478;2022-11-25T08:51:34;101176.28;;;20.63;35.24
68366;BME280;55283;51.466;5.478;2022-11-25T08:54:00;101184.28;;;20.64;35.31
68366;BME280;55283;51.466;5.478;2022-11-25T08:56:26;101186.66;;;20.66;35.08
68366;BME280;55283;51.466;5.478;2022-11-25T08:58:53;101196.16;;;20.68;35.33
68366;BME280;55283;51.466;5.478;2022-11-25T09:01:19;101187.34;;;20.70;35.41
68366;BME280;55283;51.466;5.478;2022-11-25T09:03:49;101186.06;;;20.74;35.31
68366;BME280;55283;51.466;5.478;2022-11-25T09:06:16;101190.84;;;20.74;35.50
68366;BME280;55283;51.466;5.478;2022-11-25T09:08:45;101197.31;;;20.71;35.55
68366;BME280;55283;51.466;5.478;2022-11-25T09:11:10;101198.19;;;20.68;35.47
68366;BME280;55283;51.466;5.478;2022-11-25T09:13:36;101207.66;;;20.74;35.37
68366;BME280;55283;51.466;5.478;2022-11-25T09:16:02;101200.84;;;20.75;35.59
68366;BME280;55283;51.466;5.478;2022-11-25T09:18:28;101205.22;;;20.76;35.27
68366;BME280;55283;51.466;5.478;2022-11-25T09:20:57;101202.31;;;20.79;35.19
68366;BME280;55283;51.466;5.478;2022-11-25T09:23:23;101213.97;;;20.78;35.51
68366;BME280;55283;51.466;5.478;2022-11-25T09:25:56;101219.13;;;20.79;35.52
68366;BME280;55283;51.466;5.478;2022-11-25T09:28:22;101221.94;;;20.79;35.69
68366;BME280;55283;51.466;5.478;2022-11-25T09:30:48;101231.13;;;20.80;35.45
68366;BME280;55283;51.466;5.478;2022-11-25T09:33:14;101238.31;;;20.81;35.42
68366;BME280;55283;51.466;5.478;2022-11-25T09:35:40;101232.22;;;20.86;35.27
68366;BME280;55283;51.466;5.478;2022-11-25T09:38:05;101239.03;;;20.85;35.46
68366;BME280;55283;51.466;5.478;2022-11-25T09:46:34;101242.97;;;20.88;35.28
68366;BME280;55283;51.466;5.478;2022-11-25T10:00:05;101264.53;;;20.91;35.40
68366;BME280;55283;51.466;5.478;2022-11-25T10:02:42;101268.09;;;20.91;35.46
68366;BME280;55283;51.466;5.478;2022-11-25T10:07:48;101281.19;;;20.98;35.87
68366;BME280;55283;51.466;5.478;2022-11-25T10:10:24;101274.78;;;20.97;35.78
68366;BME280;55283;51.466;5.478;2022-11-25T10:12:56;101282.59;;;21.06;35.46
68366;BME280;55283;51.466;5.478;2022-11-25T10:15:26;101284.59;;;21.06;35.29
68366;BME280;55283;51.466;5.478;2022-11-25T10:18:00;101284.59;;;21.06;35.34
68366;BME280;55283;51.466;5.478;2022-11-25T10:20:30;101287.78;;;21.08;35.43
68366;BME280;55283;51.466;5.478;2022-11-25T10:25:47;101303.28;;;21.12;35.22
68366;BME280;55283;51.466;5.478;2022-11-25T10:28:19;101320.06;;;21.16;35.05
68366;BME280;55283;51.466;5.478;2022-11-25T10:34:04;101327.22;;;21.17;35.00
68366;BME280;55283;51.466;5.478;2022-11-25T10:36:26;101325.16;;;21.21;34.97
68366;BME280;55283;51.466;5.478;2022-11-25T10:39:00;101333.47;;;21.24;35.04
68366;BME280;55283;51.466;5.478;2022-11-25T10:41:30;101322.34;;;21.21;34.93
68366;BME280;55283;51.466;5.478;2022-11-25T10:43:56;101327.38;;;21.30;34.90
68366;BME280;55283;51.466;5.478;2022-11-25T10:46:51;101330.88;;;21.34;34.76
68366;BME280;55283;51.466;5.478;2022-11-25T10:51:52;101336.38;;;21.37;34.96
68366;BME280;55283;51.466;5.478;2022-11-25T10:54:22;101336.75;;;21.39;34.69
68366;BME280;55283;51.466;5.478;2022-11-25T10:56:53;101339.91;;;21.41;34.77
68366;BME280;55283;51.466;5.478;2022-11-25T10:59:25;101344.66;;;21.44;34.68
68366;BME280;55283;51.466;5.478;2022-11-25T11:01:52;101351.13;;;21.41;34.82
68366;BME280;55283;51.466;5.478;2022-11-25T11:04:18;101344.97;;;21.46;34.81
68366;BME280;55283;51.466;5.478;2022-11-25T11:06:46;101364.97;;;21.48;34.88
68366;BME280;55283;51.466;5.478;2022-11-25T11:12:13;101353.66;;;21.52;34.93
68366;BME280;55283;51.466;5.478;2022-11-25T11:14:40;101351.66;;;21.53;34.86
68366;BME280;55283;51.466;5.478;2022-11-25T11:17:40;101356.97;;;21.47;34.99
68366;BME280;55283;51.466;5.478;2022-11-25T11:22:38;101371.66;;;21.55;36.30
68366;BME280;55283;51.466;5.478;2022-11-25T11:27:44;101382.16;;;21.67;36.26
68366;BME280;55283;51.466;5.478;2022-11-25T11:30:14;101382.91;;;21.71;35.89
68366;BME280;55283;51.466;5.478;2022-11-25T11:32:45;101382.38;;;21.76;35.71
68366;BME280;55283;51.466;5.478;2022-11-25T11:35:31;101392.38;;;21.77;35.41
68366;BME280;55283;51.466;5.478;2022-11-25T11:38:06;101402.88;;;21.73;35.83
68366;BME280;55283;51.466;5.478;2022-11-25T11:40:40;101400.00;;;21.77;36.13
68366;BME280;55283;51.466;5.478;2022-11-25T11:43:47;101405.34;;;21.71;36.65
68366;BME280;55283;51.466;5.478;2022-11-25T11:46:35;101407.69;;;21.73;36.75
68366;BME280;55283;51.466;5.478;2022-11-25T11:49:17;101403.22;;;21.75;36.44
68366;BME280;55283;51.466;5.478;2022-11-25T11:52:08;101413.94;;;21.80;36.27
68366;BME280;55283;51.466;5.478;2022-11-25T11:54:45;101407.09;;;21.81;36.01
68366;BME280;55283;51.466;5.478;2022-11-25T11:57:50;101411.03;;;21.84;35.81
68366;BME280;55283;51.466;5.478;2022-11-25T12:00:22;101419.03;;;21.85;35.80
68366;BME280;55283;51.466;5.478;2022-11-25T12:03:02;101418.22;;;21.85;35.87
68366;BME280;55283;51.466;5.478;2022-11-25T12:05:34;101426.63;;;21.85;35.57
68366;BME280;55283;51.466;5.478;2022-11-25T12:08:12;101412.19;;;21.86;35.53
68366;BME280;55283;51.466;5.478;2022-11-25T12:10:43;101415.78;;;21.87;35.57
68366;BME280;55283;51.466;5.478;2022-11-25T12:13:36;101402.44;;;21.75;35.64
68366;BME280;55283;51.466;5.478;2022-11-25T12:16:23;101426.59;;;21.88;35.28
68366;BME280;55283;51.466;5.478;2022-11-25T12:18:58;101432.13;;;21.92;35.31
68366;BME280;55283;51.466;5.478;2022-11-25T12:21:42;101427.75;;;21.91;35.28
68366;BME280;55283;51.466;5.478;2022-11-25T12:27:00;101434.16;;;21.91;35.13
68366;BME280;55283;51.466;5.478;2022-11-25T12:29:37;101422.00;;;21.78;34.40
68366;BME280;55283;51.466;5.478;2022-11-25T12:37:51;101445.97;;;21.83;34.66
68366;BME280;55283;51.466;5.478;2022-11-25T12:40:31;101442.38;;;21.82;34.52
68366;BME280;55283;51.466;5.478;2022-11-25T12:46:17;101460.41;;;21.81;34.42
68366;BME280;55283;51.466;5.478;2022-11-25T12:48:46;101468.03;;;21.81;34.34
68366;BME280;55283;51.466;5.478;2022-11-25T12:53:58;101472.50;;;21.78;34.20
68366;BME280;55283;51.466;5.478;2022-11-25T13:07:25;101493.19;;;21.68;34.94
68366;BME280;55283;51.466;5.478;2022-11-25T13:10:16;101494.06;;;21.65;34.59
68366;BME280;55283;51.466;5.478;2022-11-25T13:15:31;101500.88;;;21.64;34.48
68366;BME280;55283;51.466;5.478;2022-11-25T13:18:02;101503.50;;;21.55;34.69
68366;BME280;55283;51.466;5.478;2022-11-25T13:20:33;101493.69;;;21.63;34.63
68366;BME280;55283;51.466;5.478;2022-11-25T13:25:33;101508.09;;;21.65;34.61
68366;BME280;55283;51.466;5.478;2022-11-25T13:28:01;101512.88;;;21.64;34.68
68366;BME280;55283;51.466;5.478;2022-11-25T13:35:37;101524.13;;;21.64;34.45
68366;BME280;55283;51.466;5.478;2022-11-25T13:38:07;101523.41;;;21.60;34.60
68366;BME280;55283;51.466;5.478;2022-11-25T13:40:35;101535.78;;;21.63;34.65
68366;BME280;55283;51.466;5.478;2022-11-25T13:43:02;101521.47;;;21.57;34.78
68366;BME280;55283;51.466;5.478;2022-11-25T13:45:33;101524.56;;;21.63;34.42
68366;BME280;55283;51.466;5.478;2022-11-25T13:48:28;101545.44;;;21.62;34.62
68366;BME280;55283;51.466;5.478;2022-11-25T13:51:23;101547.44;;;21.61;34.55
68366;BME280;55283;51.466;5.478;2022-11-25T13:54:03;101549.09;;;21.59;34.67
68366;BME280;55283;51.466;5.478;2022-11-25T13:56:32;101547.97;;;21.56;34.65
68366;BME280;55283;51.466;5.478;2022-11-25T14:01:40;101538.47;;;21.50;34.78
68366;BME280;55283;51.466;5.478;2022-11-25T14:10:25;101563.75;;;21.46;34.92
68366;BME280;55283;51.466;5.478;2022-11-25T14:16:18;101563.41;;;21.44;34.78
68366;BME280;55283;51.466;5.478;2022-11-25T14:27:00;101575.22;;;21.36;34.86
68366;BME280;55283;51.466;5.478;2022-11-25T14:29:57;101587.22;;;21.36;34.97
68366;BME280;55283;51.466;5.478;2022-11-25T14:32:44;101588.00;;;21.37;34.78
68366;BME280;55283;51.466;5.478;2022-11-25T14:35:19;101594.47;;;21.34;34.89
68366;BME280;55283;51.466;5.478;2022-11-25T14:40:34;101603.31;;;21.32;34.82